Pelagia — PGRQ — position and weather

sailwx.info

Track history (hours):
 
Tides and Currents Weather Stations Pressure Air Temp Water Temp Dewpoint Dewpoint Depression Visibility Wind Speed Wind Dir Waves Ship Positions

Oceanographic research ship Pelagia (Netherlands)

Detailed information on ship capabilities available from University of Delaware's Ocean Information Center and ARCUS's ALIAS (Arctic Logistics Information and Support) project.

Last reported at 2017-Feb-24 07:32 UTC. Time now 2017-Feb-24 08:19 UTC.
Position N 28°09' W 015°26'.

Length 66 m; beam 13 m.

Type: Other ship. MMSI: 244925000.

Date/timePositionNaut miles runAvg speedWind from/ knotsBaromVisibWave heightAir tempDewpointWater temp
2017-Feb-24 07:32N 28°09' W 015°26'5 4.8
2017-Feb-24 06:33N 28°05' W 015°22'6 5.9
2017-Feb-24 05:33N 28°01' W 015°17'6 5.7
2017-Feb-24 04:33N 27°55' W 015°16'6 5.6
2017-Feb-24 03:33N 27°50' W 015°16'5 5.4
2017-Feb-24 02:33N 27°44' W 015°17'  
2017-Feb-18 10:33N 28°09' W 015°25'0 0.0
2017-Feb-18 09:31N 28°09' W 015°25'0 0.0
2017-Feb-18 08:31N 28°09' W 015°25'0 0.0
2017-Feb-18 07:31N 28°09' W 015°25'0 0.0
2017-Feb-18 06:31N 28°09' W 015°25'0 0.0
2017-Feb-18 05:31N 28°09' W 015°25'0 0.0
2017-Feb-18 04:31N 28°09' W 015°25'0 0.0
2017-Feb-18 03:31N 28°09' W 015°25'0 0.0
2017-Feb-18 02:22N 28°09' W 015°25'0 0.0
2017-Feb-18 01:22N 28°09' W 015°25'0 0.0
2017-Feb-18 00:25N 28°09' W 015°25'0 0.0
2017-Feb-17 23:22N 28°09' W 015°25'0 0.0
2017-Feb-17 22:25N 28°09' W 015°25'0 0.0
2017-Feb-17 21:25N 28°09' W 015°25'0 0.0
2017-Feb-17 20:07N 28°09' W 015°25'0 0.0
2017-Feb-17 19:28N 28°09' W 015°25'0 0.0
2017-Feb-17 18:28N 28°09' W 015°25'0 0.0
2017-Feb-17 17:28N 28°09' W 015°25'0 0.0
2017-Feb-17 16:28N 28°09' W 015°25'0 0.0
2017-Feb-17 15:25N 28°09' W 015°25'0 0.0
2017-Feb-17 14:31N 28°09' W 015°25'0 0.0
2017-Feb-17 13:31N 28°09' W 015°25'0 0.0
2017-Feb-17 12:31N 28°09' W 015°25'0 0.0
2017-Feb-17 11:31N 28°09' W 015°25'0 0.0
2017-Feb-17 10:31N 28°09' W 015°25'0 0.0
2017-Feb-17 09:16N 28°09' W 015°25'2 3.5
2017-Feb-17 08:33N 28°07' W 015°24'1 0.8
2017-Feb-17 07:33N 28°07' W 015°23'2 2.5
2017-Feb-17 06:33N 28°10' W 015°23'7 6.6
2017-Feb-17 05:33N 28°14' W 015°28'9 8.6
2017-Feb-17 04:33N 28°14' W 015°38'8 8.1
2017-Feb-17 03:33N 28°15' W 015°47'9 8.1
2017-Feb-17 02:29N 28°15' W 015°57'  
Track history (hours):
 
Tides and Currents Weather Stations Pressure Air Temp Water Temp Dewpoint Dewpoint Depression Visibility Wind Speed Wind Dir Waves Ship Positions

Oceanographic research ship Pelagia (Netherlands)

Detailed information on ship capabilities available from University of Delaware's Ocean Information Center and ARCUS's ALIAS (Arctic Logistics Information and Support) project.

Last reported at 2017-Feb-24 07:32 UTC. Time now 2017-Feb-24 08:19 UTC.
Position N 28°09' W 015°26'.

Length 66 m; beam 13 m.

Type: Other ship. MMSI: 244925000.

Date/timePositionNaut miles runAvg speedWind from/ knotsBaromVisibWave heightAir tempDewpointWater temp
2017-Feb-24 07:32N 28°09' W 015°26'5 4.8
2017-Feb-24 06:33N 28°05' W 015°22'6 5.9
2017-Feb-24 05:33N 28°01' W 015°17'6 5.7
2017-Feb-24 04:33N 27°55' W 015°16'6 5.6
2017-Feb-24 03:33N 27°50' W 015°16'5 5.4
2017-Feb-24 02:33N 27°44' W 015°17'  
2017-Feb-18 10:33N 28°09' W 015°25'0 0.0
2017-Feb-18 09:31N 28°09' W 015°25'0 0.0
2017-Feb-18 08:31N 28°09' W 015°25'0 0.0
2017-Feb-18 07:31N 28°09' W 015°25'0 0.0
2017-Feb-18 06:31N 28°09' W 015°25'0 0.0
2017-Feb-18 05:31N 28°09' W 015°25'0 0.0
2017-Feb-18 04:31N 28°09' W 015°25'0 0.0
2017-Feb-18 03:31N 28°09' W 015°25'0 0.0
2017-Feb-18 02:22N 28°09' W 015°25'0 0.0
2017-Feb-18 01:22N 28°09' W 015°25'0 0.0
2017-Feb-18 00:25N 28°09' W 015°25'0 0.0
2017-Feb-17 23:22N 28°09' W 015°25'0 0.0
2017-Feb-17 22:25N 28°09' W 015°25'0 0.0
2017-Feb-17 21:25N 28°09' W 015°25'0 0.0
2017-Feb-17 20:07N 28°09' W 015°25'0 0.0
2017-Feb-17 19:28N 28°09' W 015°25'0 0.0
2017-Feb-17 18:28N 28°09' W 015°25'0 0.0
2017-Feb-17 17:28N 28°09' W 015°25'0 0.0
2017-Feb-17 16:28N 28°09' W 015°25'0 0.0
2017-Feb-17 15:25N 28°09' W 015°25'0 0.0
2017-Feb-17 14:31N 28°09' W 015°25'0 0.0
2017-Feb-17 13:31N 28°09' W 015°25'0 0.0
2017-Feb-17 12:31N 28°09' W 015°25'0 0.0
2017-Feb-17 11:31N 28°09' W 015°25'0 0.0
2017-Feb-17 10:31N 28°09' W 015°25'0 0.0
2017-Feb-17 09:16N 28°09' W 015°25'2 3.5
2017-Feb-17 08:33N 28°07' W 015°24'1 0.8
2017-Feb-17 07:33N 28°07' W 015°23'2 2.5
2017-Feb-17 06:33N 28°10' W 015°23'7 6.6
2017-Feb-17 05:33N 28°14' W 015°28'9 8.6
2017-Feb-17 04:33N 28°14' W 015°38'8 8.1
2017-Feb-17 03:33N 28°15' W 015°47'9 8.1
2017-Feb-17 02:29N 28°15' W 015°57'  

Dump ship's entire track history